Terminal Aerodrome Forecast
Issued by NWS Louisville, KY

Home | Current Version | Previous Version | Text Only | Print | Product List | Glossary On
Versions: 1 2 3 4 5 6 7 8 9 10 11 12
279
FTUS43 KLMK 261725
TAFSDF
TAF
KSDF 261725Z 2618/2724 32008G15KT P6SM FEW070 SCT200
      TEMPO 2618/2622 BKN070
     FM270300 28004KT P6SM VCSH SCT060 BKN120
     FM271200 VRB03KT P6SM FEW045 SCT090
     FM271800 VRB03KT P6SM SCT250=

USA.gov is the U.S. government's official web portal to all federal, state and local government web resources and services.